Taipei Songshan Airport
RCSS : now visible

Aeroporto :











RITROVATECI SU...

 
LOGIN :

Iscrizione | Disclaimer

   EN    FR    IT 

 









Sommario :    VFR   VFR Marginale   IFR   IFR Intensivo   IFR Molto Intensivo
Visibilità : 
Base nubi : 
>= 8 km
>= 3000ft
5 / 8 km
1000 / 3000 ft
1500m / 5 km
500 / 1000 ft
800 / 1500m
200 / 500 ft
< 800m
< 200 ft
Simboli :   Temporali  Nebbia  Neve Forte  Precipitazioni Forti  Vento > 20 kt






- Altitudine del aeroporto : 18 ft
- Codice IATA : TSA


RCSS - Taipei Songshan

ULTIMO METAR :
  • 190800Z 09005KT 9999 FEW015 SCT025 BKN035 29/27 Q1006 RETS RESHRA NOSIG RMK A2972 RA AMT 12.2MM

METARs OBSOLETI :
  • 190742Z 09007KT 6000 -SHRA FEW006 BKN020 FEW025TCU BKN035 29/27 Q1006 RETS NOSIG RMK TCU SE AND SW A2972
  • 190720Z 18009KT 100V230 1200 R10/1000D +TSRA SCT005 BKN012 BKN015CB BKN030 28/26 Q1006 BECMG NSW RMK TS OVHD A2972
  • 190714Z 17009KT 120V220 2000 TSRA SCT005 BKN012 BKN015CB BKN045 29/26 Q1006 BECMG NSW RMK TS OVHD A2972
  • 190703Z VRB04KT 9999 -TSRA FEW010 BKN020 BKN022CB BKN045 31/26 Q1006 NOSIG RMK TS OVHD A2972
  • 190630Z 32006KT 280V010 9999 -TSRA FEW010 BKN020 FEW022CB BKN045 31/26 Q1006 WS R10 NOSIG RMK TS S-SW MOV E A2972
  • 190617Z 31007KT 280V360 9999 -TSRA FEW015 FEW020CB BKN028 BKN050 32/26 Q1006 WS R10 NOSIG RMK TS E AND SW MOV NE A2972
  • 190600Z 32008KT 290V010 9999 -TSRA FEW015 FEW020CB BKN028 BKN050 32/27 Q1006 NOSIG RMK TS E AND SW MOV NE A2972
  • 190557Z 31008KT 290V350 9999 TS VCSH FEW015 FEW020CB BKN028 BKN050 32/27 Q1006 NOSIG RMK TS E AND SW MOV NE A2972
  • 190530Z 30008KT 9999 FEW020 FEW025TCU BKN028 BKN060 33/27 Q1006 NOSIG RMK 32009KT/R10 TCU SW A2972
  • 190513Z 28004KT 260V320 9999 FEW018 BKN028 BKN080 32/27 Q1006 NOSIG RMK 30009KT/R10 A2972
  • 190500Z VRB02KT 9999 FEW018 BKN028 BKN050 32/27 Q1006 NOSIG RMK A2972
  • 190430Z 11008KT 080V150 9999 FEW018 BKN035 BKN050 34/28 Q1006 NOSIG RMK A2973
  • 190400Z 30006KT 9999 FEW018 BKN035 BKN050 33/27 Q1007 NOSIG RMK A2975
  • 190330Z 30005KT 270V350 9999 FEW018 BKN030 BKN050 33/26 Q1007 NOSIG RMK A2975

TAF TAF RCSS
Valido dal 19 a 06 ore il 20 a 06 ore UTC


190500Z 1906/2006 30008KT 9999 FEW012 BKN032
TEMPO 1906/1910 14012KT 2200 TSRA SCT008 FEW010CB BKN011 BKN030
BECMG 1910/1912 09005KT
BECMG 2000/2002 30005KT
FIR RCAA / Asia



MetMap, La meteo Aeronautica in un colpo d'occhio ! - Copyright ORBIFLY Dicembre 2007 - Disclaimer

ORBIFLY MET'MAP TEAM :

Programmazione e sviluppo : Alexandra Zaïnal
Concezione : Baudouin d'Aumeries
Supporto tecnico e logistico : Manuel Goepfert
Aiuto : Marc-Olivier Méhu
Aiuto per la traduzione : Arnaldo La Scala




FONTI E CREDITI :

   NOAA       Earth
Advisory